sensor_id;sensor_type;location;lat;lon;timestamp;pressure;altitude;pressure_sealevel;temperature
15333;BMP180;7766;51.534;6.722;2023-07-24T00:00:28;97491.84;;;16.48
15333;BMP180;7766;51.534;6.722;2023-07-24T00:01:29;97491.06;;;16.48
15333;BMP180;7766;51.534;6.722;2023-07-24T00:02:30;97493.66;;;16.52
15333;BMP180;7766;51.534;6.722;2023-07-24T00:03:31;97489.78;;;16.58
15333;BMP180;7766;51.534;6.722;2023-07-24T00:04:32;97487.81;;;16.51
15333;BMP180;7766;51.534;6.722;2023-07-24T00:05:34;97477.63;;;16.57
15333;BMP180;7766;51.534;6.722;2023-07-24T00:06:35;97478.59;;;16.61
15333;BMP180;7766;51.534;6.722;2023-07-24T00:07:36;97467.41;;;16.64
15333;BMP180;7766;51.534;6.722;2023-07-24T00:08:38;97469.59;;;16.62
15333;BMP180;7766;51.534;6.722;2023-07-24T00:09:39;97471.94;;;16.64
15333;BMP180;7766;51.534;6.722;2023-07-24T00:10:40;97468.00;;;16.61
15333;BMP180;7766;51.534;6.722;2023-07-24T00:11:41;97464.38;;;16.57
15333;BMP180;7766;51.534;6.722;2023-07-24T00:12:42;97474.50;;;16.55
15333;BMP180;7766;51.534;6.722;2023-07-24T00:13:44;97478.00;;;16.25
15333;BMP180;7766;51.534;6.722;2023-07-24T00:14:45;97465.09;;;16.36
15333;BMP180;7766;51.534;6.722;2023-07-24T00:15:45;97461.06;;;16.39
15333;BMP180;7766;51.534;6.722;2023-07-24T00:16:46;97452.69;;;16.45
15333;BMP180;7766;51.534;6.722;2023-07-24T00:17:47;97446.72;;;16.53
15333;BMP180;7766;51.534;6.722;2023-07-24T00:18:48;97447.22;;;16.55
15333;BMP180;7766;51.534;6.722;2023-07-24T00:19:50;97450.34;;;16.57
15333;BMP180;7766;51.534;6.722;2023-07-24T00:20:50;97444.75;;;16.58
15333;BMP180;7766;51.534;6.722;2023-07-24T00:21:51;97442.59;;;16.60
15333;BMP180;7766;51.534;6.722;2023-07-24T00:22:52;97440.13;;;16.64
15333;BMP180;7766;51.534;6.722;2023-07-24T00:23:53;97446.09;;;16.69
15333;BMP180;7766;51.534;6.722;2023-07-24T00:24:54;97439.75;;;16.70
15333;BMP180;7766;51.534;6.722;2023-07-24T00:25:55;97437.28;;;16.73
15333;BMP180;7766;51.534;6.722;2023-07-24T00:26:56;97442.59;;;16.73
15333;BMP180;7766;51.534;6.722;2023-07-24T00:27:57;97450.56;;;16.60
15333;BMP180;7766;51.534;6.722;2023-07-24T00:29:00;97439.84;;;16.65
15333;BMP180;7766;51.534;6.722;2023-07-24T00:30:02;97439.75;;;16.70
15333;BMP180;7766;51.534;6.722;2023-07-24T00:31:02;97437.78;;;16.62
15333;BMP180;7766;51.534;6.722;2023-07-24T00:32:04;97441.41;;;16.66
15333;BMP180;7766;51.534;6.722;2023-07-24T00:33:05;97435.34;;;16.66
15333;BMP180;7766;51.534;6.722;2023-07-24T00:34:06;97436.31;;;16.69
15333;BMP180;7766;51.534;6.722;2023-07-24T00:35:07;97431.47;;;16.71
15333;BMP180;7766;51.534;6.722;2023-07-24T00:36:09;97426.97;;;16.72
15333;BMP180;7766;51.534;6.722;2023-07-24T00:37:10;97431.97;;;16.73
15333;BMP180;7766;51.534;6.722;2023-07-24T00:38:11;97430.13;;;16.74
15333;BMP180;7766;51.534;6.722;2023-07-24T00:39:14;97425.31;;;16.76
15333;BMP180;7766;51.534;6.722;2023-07-24T00:40:15;97433.25;;;16.76
15333;BMP180;7766;51.534;6.722;2023-07-24T00:41:16;97424.81;;;16.74
15333;BMP180;7766;51.534;6.722;2023-07-24T00:42:17;97428.75;;;16.76
15333;BMP180;7766;51.534;6.722;2023-07-24T00:43:18;97426.38;;;16.75
15333;BMP180;7766;51.534;6.722;2023-07-24T00:44:19;97430.28;;;16.77
15333;BMP180;7766;51.534;6.722;2023-07-24T00:45:22;97424.22;;;16.77
15333;BMP180;7766;51.534;6.722;2023-07-24T00:46:24;97427.94;;;16.76
15333;BMP180;7766;51.534;6.722;2023-07-24T00:47:26;97422.84;;;16.79
15333;BMP180;7766;51.534;6.722;2023-07-24T00:48:27;97422.84;;;16.79
15333;BMP180;7766;51.534;6.722;2023-07-24T00:49:29;97418.03;;;16.81
15333;BMP180;7766;51.534;6.722;2023-07-24T00:50:30;97422.53;;;16.81
15333;BMP180;7766;51.534;6.722;2023-07-24T00:51:33;97421.47;;;16.82
15333;BMP180;7766;51.534;6.722;2023-07-24T00:52:34;97423.03;;;16.83
15333;BMP180;7766;51.534;6.722;2023-07-24T00:53:35;97416.16;;;16.82
15333;BMP180;7766;51.534;6.722;2023-07-24T00:54:37;97413.59;;;16.77
15333;BMP180;7766;51.534;6.722;2023-07-24T00:55:39;97412.25;;;16.79
15333;BMP180;7766;51.534;6.722;2023-07-24T00:56:40;97412.84;;;16.76
15333;BMP180;7766;51.534;6.722;2023-07-24T00:57:41;97412.06;;;16.76
15333;BMP180;7766;51.534;6.722;2023-07-24T00:58:43;97405.16;;;16.75
15333;BMP180;7766;51.534;6.722;2023-07-24T00:59:44;97406.88;;;16.71
15333;BMP180;7766;51.534;6.722;2023-07-24T01:00:45;97402.53;;;16.75
15333;BMP180;7766;51.534;6.722;2023-07-24T01:01:46;97405.97;;;16.75
15333;BMP180;7766;51.534;6.722;2023-07-24T01:02:48;97402.84;;;16.73
15333;BMP180;7766;51.534;6.722;2023-07-24T01:03:50;97398.81;;;16.76
15333;BMP180;7766;51.534;6.722;2023-07-24T01:04:52;97403.63;;;16.74
15333;BMP180;7766;51.534;6.722;2023-07-24T01:05:54;97393.06;;;16.61
15333;BMP180;7766;51.534;6.722;2023-07-24T01:06:55;97400.31;;;16.55
15333;BMP180;7766;51.534;6.722;2023-07-24T01:07:56;97402.56;;;16.49
15333;BMP180;7766;51.534;6.722;2023-07-24T01:08:57;97392.75;;;16.49
15333;BMP180;7766;51.534;6.722;2023-07-24T01:09:58;97382.44;;;16.48
15333;BMP180;7766;51.534;6.722;2023-07-24T01:11:05;97386.06;;;16.52
15333;BMP180;7766;51.534;6.722;2023-07-24T01:12:18;97381.16;;;16.58
15333;BMP180;7766;51.534;6.722;2023-07-24T01:13:25;97372.91;;;16.60
15333;BMP180;7766;51.534;6.722;2023-07-24T01:14:43;97373.13;;;16.63
15333;BMP180;7766;51.534;6.722;2023-07-24T01:16:03;97362.22;;;16.65
15333;BMP180;7766;51.534;6.722;2023-07-24T01:17:07;97358.50;;;16.66
15333;BMP180;7766;51.534;6.722;2023-07-24T01:18:14;97363.00;;;16.65
15333;BMP180;7766;51.534;6.722;2023-07-24T01:20:50;97357.81;;;16.60
15333;BMP180;7766;51.534;6.722;2023-07-24T01:22:25;97345.16;;;16.57
15333;BMP180;7766;51.534;6.722;2023-07-24T01:24:03;97340.66;;;16.58
15333;BMP180;7766;51.534;6.722;2023-07-24T01:26:21;97347.22;;;16.60
15333;BMP180;7766;51.534;6.722;2023-07-24T01:27:24;97344.13;;;16.67
15333;BMP180;7766;51.534;6.722;2023-07-24T01:28:26;97334.03;;;16.68
15333;BMP180;7766;51.534;6.722;2023-07-24T01:29:27;97340.09;;;16.69
15333;BMP180;7766;51.534;6.722;2023-07-24T01:30:28;97342.66;;;16.74
15333;BMP180;7766;51.534;6.722;2023-07-24T01:31:29;97342.94;;;16.72
15333;BMP180;7766;51.534;6.722;2023-07-24T01:32:30;97339.03;;;16.70
15333;BMP180;7766;51.534;6.722;2023-07-24T01:33:31;97342.16;;;16.72
15333;BMP180;7766;51.534;6.722;2023-07-24T01:34:35;97333.72;;;16.70
15333;BMP180;7766;51.534;6.722;2023-07-24T01:35:37;97333.13;;;16.73
15333;BMP180;7766;51.534;6.722;2023-07-24T01:36:38;97336.25;;;16.75
15333;BMP180;7766;51.534;6.722;2023-07-24T01:37:41;97332.06;;;16.74
15333;BMP180;7766;51.534;6.722;2023-07-24T01:38:43;97335.66;;;16.78
15333;BMP180;7766;51.534;6.722;2023-07-24T01:39:45;97338.78;;;16.80
15333;BMP180;7766;51.534;6.722;2023-07-24T01:40:47;97334.47;;;16.83
15333;BMP180;7766;51.534;6.722;2023-07-24T01:41:49;97328.38;;;16.83
15333;BMP180;7766;51.534;6.722;2023-07-24T01:42:51;97329.97;;;16.84
15333;BMP180;7766;51.534;6.722;2023-07-24T01:43:52;97326.22;;;16.85
15333;BMP180;7766;51.534;6.722;2023-07-24T01:44:55;97321.91;;;16.89
15333;BMP180;7766;51.534;6.722;2023-07-24T01:45:56;97327.50;;;16.87
15333;BMP180;7766;51.534;6.722;2023-07-24T01:46:57;97328.28;;;16.88
15333;BMP180;7766;51.534;6.722;2023-07-24T01:47:59;97332.91;;;16.83
15333;BMP180;7766;51.534;6.722;2023-07-24T01:49:00;97336.81;;;16.85
15333;BMP180;7766;51.534;6.722;2023-07-24T01:50:01;97330.94;;;16.88
15333;BMP180;7766;51.534;6.722;2023-07-24T01:51:02;97333.31;;;16.89
15333;BMP180;7766;51.534;6.722;2023-07-24T01:52:03;97330.75;;;16.84
15333;BMP180;7766;51.534;6.722;2023-07-24T01:53:04;97332.91;;;16.83
15333;BMP180;7766;51.534;6.722;2023-07-24T01:54:05;97323.88;;;16.83
15333;BMP180;7766;51.534;6.722;2023-07-24T01:55:06;97324.94;;;16.83
15333;BMP180;7766;51.534;6.722;2023-07-24T01:56:07;97323.88;;;16.83
15333;BMP180;7766;51.534;6.722;2023-07-24T01:57:08;97321.72;;;16.85
15333;BMP180;7766;51.534;6.722;2023-07-24T01:58:09;97326.91;;;16.90
15333;BMP180;7766;51.534;6.722;2023-07-24T01:59:10;97322.41;;;16.91
15333;BMP180;7766;51.534;6.722;2023-07-24T02:00:12;97321.00;;;16.93
15333;BMP180;7766;51.534;6.722;2023-07-24T02:01:13;97328.38;;;16.83
15333;BMP180;7766;51.534;6.722;2023-07-24T02:02:15;97326.03;;;16.82
15333;BMP180;7766;51.534;6.722;2023-07-24T02:03:16;97329.22;;;16.70
15333;BMP180;7766;51.534;6.722;2023-07-24T02:04:17;97334.22;;;16.72
15333;BMP180;7766;51.534;6.722;2023-07-24T02:05:18;97319.75;;;16.78
15333;BMP180;7766;51.534;6.722;2023-07-24T02:06:19;97320.25;;;16.80
15333;BMP180;7766;51.534;6.722;2023-07-24T02:07:20;97318.09;;;16.82
15333;BMP180;7766;51.534;6.722;2023-07-24T02:08:21;97319.06;;;16.85
15333;BMP180;7766;51.534;6.722;2023-07-24T02:09:22;97326.44;;;16.88
15333;BMP180;7766;51.534;6.722;2023-07-24T02:10:23;97320.66;;;16.86
15333;BMP180;7766;51.534;6.722;2023-07-24T02:11:24;97321.59;;;16.90
15333;BMP180;7766;51.534;6.722;2023-07-24T02:12:25;97325.25;;;16.94
15333;BMP180;7766;51.534;6.722;2023-07-24T02:13:26;97318.53;;;16.97
15333;BMP180;7766;51.534;6.722;2023-07-24T02:14:27;97333.19;;;16.94
15333;BMP180;7766;51.534;6.722;2023-07-24T02:15:28;97319.75;;;16.91
15333;BMP180;7766;51.534;6.722;2023-07-24T02:16:29;97319.94;;;16.94
15333;BMP180;7766;51.534;6.722;2023-07-24T02:17:30;97323.84;;;16.97
15333;BMP180;7766;51.534;6.722;2023-07-24T02:18:31;97316.19;;;16.95
15333;BMP180;7766;51.534;6.722;2023-07-24T02:19:32;97324.56;;;16.89
15333;BMP180;7766;51.534;6.722;2023-07-24T02:20:33;97316.81;;;16.92
15333;BMP180;7766;51.534;6.722;2023-07-24T02:21:34;97320.41;;;16.96
15333;BMP180;7766;51.534;6.722;2023-07-24T02:22:35;97317.47;;;16.98
15333;BMP180;7766;51.534;6.722;2023-07-24T02:23:36;97316.97;;;16.96
15333;BMP180;7766;51.534;6.722;2023-07-24T02:24:37;97322.47;;;16.99
15333;BMP180;7766;51.534;6.722;2023-07-24T02:25:38;97320.28;;;17.01
15333;BMP180;7766;51.534;6.722;2023-07-24T02:26:39;97320.00;;;17.02
15333;BMP180;7766;51.534;6.722;2023-07-24T02:27:40;97325.00;;;17.04
15333;BMP180;7766;51.534;6.722;2023-07-24T02:28:41;97320.16;;;17.06
15333;BMP180;7766;51.534;6.722;2023-07-24T02:29:42;97321.00;;;16.93
15333;BMP180;7766;51.534;6.722;2023-07-24T02:30:43;97323.53;;;16.98
15333;BMP180;7766;51.534;6.722;2023-07-24T02:31:44;97319.63;;;16.83
15333;BMP180;7766;51.534;6.722;2023-07-24T02:32:45;97321.00;;;16.93
15333;BMP180;7766;51.534;6.722;2023-07-24T02:33:46;97317.63;;;17.01
15333;BMP180;7766;51.534;6.722;2023-07-24T02:34:50;97311.25;;;17.02
15333;BMP180;7766;51.534;6.722;2023-07-24T02:35:52;97316.97;;;16.96
15333;BMP180;7766;51.534;6.722;2023-07-24T02:36:53;97325.13;;;16.99
15333;BMP180;7766;51.534;6.722;2023-07-24T02:37:54;97328.38;;;16.96
15333;BMP180;7766;51.534;6.722;2023-07-24T02:38:55;97321.88;;;17.02
15333;BMP180;7766;51.534;6.722;2023-07-24T02:39:56;97320.00;;;17.02
15333;BMP180;7766;51.534;6.722;2023-07-24T02:40:57;97318.91;;;17.03
15333;BMP180;7766;51.534;6.722;2023-07-24T02:41:58;97321.25;;;17.05
15333;BMP180;7766;51.534;6.722;2023-07-24T02:42:59;97316.44;;;17.07
15333;BMP180;7766;51.534;6.722;2023-07-24T02:44:02;97329.09;;;17.10
15333;BMP180;7766;51.534;6.722;2023-07-24T02:45:03;97339.69;;;17.10
15333;BMP180;7766;51.534;6.722;2023-07-24T02:46:04;97335.97;;;17.11
15333;BMP180;7766;51.534;6.722;2023-07-24T02:47:06;97345.94;;;17.14
15333;BMP180;7766;51.534;6.722;2023-07-24T02:48:07;97350.38;;;16.97
15333;BMP180;7766;51.534;6.722;2023-07-24T02:49:08;97351.63;;;16.99
15333;BMP180;7766;51.534;6.722;2023-07-24T02:50:09;97355.72;;;17.05
15333;BMP180;7766;51.534;6.722;2023-07-24T02:51:10;97361.91;;;17.00
15333;BMP180;7766;51.534;6.722;2023-07-24T02:52:11;97362.72;;;17.01
15333;BMP180;7766;51.534;6.722;2023-07-24T02:53:12;97361.84;;;17.05
15333;BMP180;7766;51.534;6.722;2023-07-24T02:54:12;97358.06;;;17.06
15333;BMP180;7766;51.534;6.722;2023-07-24T02:55:13;97354.03;;;17.09
15333;BMP180;7766;51.534;6.722;2023-07-24T02:56:14;97353.09;;;17.05
15333;BMP180;7766;51.534;6.722;2023-07-24T02:57:15;97350.31;;;17.10
15333;BMP180;7766;51.534;6.722;2023-07-24T02:58:16;97353.44;;;17.12
15333;BMP180;7766;51.534;6.722;2023-07-24T02:59:17;97349.41;;;17.14
15333;BMP180;7766;51.534;6.722;2023-07-24T03:00:18;97350.66;;;17.16
15333;BMP180;7766;51.534;6.722;2023-07-24T03:01:19;97353.03;;;17.18
15333;BMP180;7766;51.534;6.722;2023-07-24T03:02:20;97351.69;;;17.07
15333;BMP180;7766;51.534;6.722;2023-07-24T03:03:21;97356.09;;;17.12
15333;BMP180;7766;51.534;6.722;2023-07-24T03:04:23;97349.72;;;17.13
15333;BMP180;7766;51.534;6.722;2023-07-24T03:05:24;97352.84;;;17.15
15333;BMP180;7766;51.534;6.722;2023-07-24T03:06:26;97355.94;;;17.08
15333;BMP180;7766;51.534;6.722;2023-07-24T03:07:27;97354.53;;;17.11
15333;BMP180;7766;51.534;6.722;2023-07-24T03:08:28;97362.50;;;17.11
15333;BMP180;7766;51.534;6.722;2023-07-24T03:09:29;97361.16;;;17.00
15333;BMP180;7766;51.534;6.722;2023-07-24T03:10:30;97358.88;;;17.07
15333;BMP180;7766;51.534;6.722;2023-07-24T03:11:30;97368.09;;;17.09
15333;BMP180;7766;51.534;6.722;2023-07-24T03:12:31;97365.88;;;17.03
15333;BMP180;7766;51.534;6.722;2023-07-24T03:13:32;97360.78;;;16.93
15333;BMP180;7766;51.534;6.722;2023-07-24T03:14:33;97363.16;;;16.95
15333;BMP180;7766;51.534;6.722;2023-07-24T03:15:34;97370.59;;;16.80
15333;BMP180;7766;51.534;6.722;2023-07-24T03:16:35;97369.44;;;16.85
15333;BMP180;7766;51.534;6.722;2023-07-24T03:17:36;97362.94;;;16.91
15333;BMP180;7766;51.534;6.722;2023-07-24T03:18:37;97356.84;;;16.91
15333;BMP180;7766;51.534;6.722;2023-07-24T03:19:38;97362.56;;;16.84
15333;BMP180;7766;51.534;6.722;2023-07-24T03:20:39;97365.72;;;16.86
15333;BMP180;7766;51.534;6.722;2023-07-24T03:21:40;97363.25;;;16.77
15333;BMP180;7766;51.534;6.722;2023-07-24T03:22:42;97369.09;;;16.66
15333;BMP180;7766;51.534;6.722;2023-07-24T03:23:43;97354.72;;;16.67
15333;BMP180;7766;51.534;6.722;2023-07-24T03:24:44;97356.72;;;16.61
15333;BMP180;7766;51.534;6.722;2023-07-24T03:25:46;97341.31;;;16.63
15333;BMP180;7766;51.534;6.722;2023-07-24T03:26:47;97348.75;;;16.61
15333;BMP180;7766;51.534;6.722;2023-07-24T03:27:48;97348.00;;;16.61
15333;BMP180;7766;51.534;6.722;2023-07-24T03:28:49;97350.03;;;16.64
15333;BMP180;7766;51.534;6.722;2023-07-24T03:29:50;97352.19;;;16.62
15333;BMP180;7766;51.534;6.722;2023-07-24T03:30:51;97347.53;;;16.46
15333;BMP180;7766;51.534;6.722;2023-07-24T03:31:52;97344.16;;;16.53
15333;BMP180;7766;51.534;6.722;2023-07-24T03:32:53;97333.56;;;16.53
15333;BMP180;7766;51.534;6.722;2023-07-24T03:33:53;97326.41;;;16.54
15333;BMP180;7766;51.534;6.722;2023-07-24T03:34:54;97328.00;;;16.55
15333;BMP180;7766;51.534;6.722;2023-07-24T03:35:55;97317.69;;;16.53
15333;BMP180;7766;51.534;6.722;2023-07-24T03:36:56;97318.47;;;16.54
15333;BMP180;7766;51.534;6.722;2023-07-24T03:37:57;97313.94;;;16.54
15333;BMP180;7766;51.534;6.722;2023-07-24T03:38:58;97310.81;;;16.52
15333;BMP180;7766;51.534;6.722;2023-07-24T03:39:59;97304.06;;;16.47
15333;BMP180;7766;51.534;6.722;2023-07-24T03:41:01;97305.28;;;16.28
15333;BMP180;7766;51.534;6.722;2023-07-24T03:42:02;97306.94;;;16.37
15333;BMP180;7766;51.534;6.722;2023-07-24T03:43:03;97296.50;;;16.40
15333;BMP180;7766;51.534;6.722;2023-07-24T03:44:04;97296.53;;;16.27
15333;BMP180;7766;51.534;6.722;2023-07-24T03:45:06;97301.66;;;16.37
15333;BMP180;7766;51.534;6.722;2023-07-24T03:46:08;97286.34;;;16.34
15333;BMP180;7766;51.534;6.722;2023-07-24T03:47:09;97280.66;;;16.27
15333;BMP180;7766;51.534;6.722;2023-07-24T03:48:09;97270.66;;;16.24
15333;BMP180;7766;51.534;6.722;2023-07-24T03:49:10;97273.13;;;16.21
15333;BMP180;7766;51.534;6.722;2023-07-24T03:50:11;97271.63;;;16.28
15333;BMP180;7766;51.534;6.722;2023-07-24T03:51:13;97266.53;;;16.32
15333;BMP180;7766;51.534;6.722;2023-07-24T03:52:14;97265.75;;;16.31
15333;BMP180;7766;51.534;6.722;2023-07-24T03:53:15;97263.56;;;16.33
15333;BMP180;7766;51.534;6.722;2023-07-24T03:54:16;97262.19;;;16.36
15333;BMP180;7766;51.534;6.722;2023-07-24T03:55:17;97257.38;;;16.37
15333;BMP180;7766;51.534;6.722;2023-07-24T03:56:18;97253.97;;;16.37
15333;BMP180;7766;51.534;6.722;2023-07-24T03:57:19;97251.03;;;16.25
15333;BMP180;7766;51.534;6.722;2023-07-24T03:58:20;97252.50;;;16.31
15333;BMP180;7766;51.534;6.722;2023-07-24T03:59:21;97253.03;;;16.20
15333;BMP180;7766;51.534;6.722;2023-07-24T04:00:22;97249.59;;;16.20
15333;BMP180;7766;51.534;6.722;2023-07-24T04:01:24;97245.34;;;16.19
15333;BMP180;7766;51.534;6.722;2023-07-24T04:02:24;97247.34;;;16.13
15333;BMP180;7766;51.534;6.722;2023-07-24T04:03:25;97249.34;;;16.08
15333;BMP180;7766;51.534;6.722;2023-07-24T04:04:26;97232.75;;;16.16
15333;BMP180;7766;51.534;6.722;2023-07-24T04:05:27;97240.38;;;16.17
15333;BMP180;7766;51.534;6.722;2023-07-24T04:06:28;97231.47;;;16.13
15333;BMP180;7766;51.534;6.722;2023-07-24T04:07:30;97232.44;;;16.17
15333;BMP180;7766;51.534;6.722;2023-07-24T04:08:30;97232.63;;;16.20
15333;BMP180;7766;51.534;6.722;2023-07-24T04:09:31;97226.72;;;16.23
15333;BMP180;7766;51.534;6.722;2023-07-24T04:10:33;97230.16;;;16.24
15333;BMP180;7766;51.534;6.722;2023-07-24T04:11:34;97230.06;;;16.29
15333;BMP180;7766;51.534;6.722;2023-07-24T04:12:35;97228.47;;;16.28
15333;BMP180;7766;51.534;6.722;2023-07-24T04:13:36;97225.34;;;16.26
15333;BMP180;7766;51.534;6.722;2023-07-24T04:14:37;97228.88;;;16.21
15333;BMP180;7766;51.534;6.722;2023-07-24T04:15:38;97225.81;;;16.28
15333;BMP180;7766;51.534;6.722;2023-07-24T04:16:40;97226.16;;;16.26
15333;BMP180;7766;51.534;6.722;2023-07-24T04:17:41;97225.50;;;16.29
15333;BMP180;7766;51.534;6.722;2023-07-24T04:18:42;97228.00;;;16.26
15333;BMP180;7766;51.534;6.722;2023-07-24T04:19:43;97234.59;;;16.15
15333;BMP180;7766;51.534;6.722;2023-07-24T04:20:44;97235.31;;;16.07
15333;BMP180;7766;51.534;6.722;2023-07-24T04:21:45;97239.22;;;16.10
15333;BMP180;7766;51.534;6.722;2023-07-24T04:22:46;97241.44;;;16.16
15333;BMP180;7766;51.534;6.722;2023-07-24T04:23:47;97233.81;;;16.15
15333;BMP180;7766;51.534;6.722;2023-07-24T04:24:48;97244.91;;;16.04
15333;BMP180;7766;51.534;6.722;2023-07-24T04:25:52;97225.91;;;16.02
15333;BMP180;7766;51.534;6.722;2023-07-24T04:26:53;97223.72;;;16.04
15333;BMP180;7766;51.534;6.722;2023-07-24T04:27:54;97231.09;;;15.93
15333;BMP180;7766;51.534;6.722;2023-07-24T04:28:55;97235.34;;;15.94
15333;BMP180;7766;51.534;6.722;2023-07-24T04:29:56;97228.94;;;15.95
15333;BMP180;7766;51.534;6.722;2023-07-24T04:31:00;97232.47;;;15.91
15333;BMP180;7766;51.534;6.722;2023-07-24T04:32:02;97223.94;;;15.94
15333;BMP180;7766;51.534;6.722;2023-07-24T04:33:03;97228.16;;;15.95
15333;BMP180;7766;51.534;6.722;2023-07-24T04:34:03;97223.84;;;15.99
15333;BMP180;7766;51.534;6.722;2023-07-24T04:35:05;97228.94;;;15.95
15333;BMP180;7766;51.534;6.722;2023-07-24T04:36:06;97227.88;;;15.96
15333;BMP180;7766;51.534;6.722;2023-07-24T04:37:07;97247.88;;;16.02
15333;BMP180;7766;51.534;6.722;2023-07-24T04:38:08;97251.59;;;16.01
15333;BMP180;7766;51.534;6.722;2023-07-24T04:39:09;97257.19;;;16.00
15333;BMP180;7766;51.534;6.722;2023-07-24T04:40:10;97242.47;;;16.07
15333;BMP180;7766;51.534;6.722;2023-07-24T04:41:11;97258.34;;;16.07
15333;BMP180;7766;51.534;6.722;2023-07-24T04:42:12;97256.28;;;16.04
15333;BMP180;7766;51.534;6.722;2023-07-24T04:43:13;97264.44;;;16.07
15333;BMP180;7766;51.534;6.722;2023-07-24T04:44:14;97258.53;;;16.10
15333;BMP180;7766;51.534;6.722;2023-07-24T04:45:15;97266.19;;;15.99
15333;BMP180;7766;51.534;6.722;2023-07-24T04:46:16;97263.16;;;16.05
15333;BMP180;7766;51.534;6.722;2023-07-24T04:47:17;97263.84;;;16.10
15333;BMP180;7766;51.534;6.722;2023-07-24T04:48:18;97273.44;;;16.06
15333;BMP180;7766;51.534;6.722;2023-07-24T04:49:19;97274.34;;;16.02
15333;BMP180;7766;51.534;6.722;2023-07-24T04:50:20;97275.03;;;15.94
15333;BMP180;7766;51.534;6.722;2023-07-24T04:51:21;97279.13;;;16.00
15333;BMP180;7766;51.534;6.722;2023-07-24T04:52:22;97280.41;;;16.03
15333;BMP180;7766;51.534;6.722;2023-07-24T04:53:23;97276.41;;;16.05
15333;BMP180;7766;51.534;6.722;2023-07-24T04:54:24;97287.84;;;16.14
15333;BMP180;7766;51.534;6.722;2023-07-24T04:55:25;97275.59;;;16.18
15333;BMP180;7766;51.534;6.722;2023-07-24T04:56:26;97282.66;;;16.09
15333;BMP180;7766;51.534;6.722;2023-07-24T04:57:27;97280.41;;;16.16
15333;BMP180;7766;51.534;6.722;2023-07-24T04:58:28;97277.75;;;16.16
15333;BMP180;7766;51.534;6.722;2023-07-24T04:59:29;97289.72;;;16.13
15333;BMP180;7766;51.534;6.722;2023-07-24T05:00:30;97281.09;;;16.21
15333;BMP180;7766;51.534;6.722;2023-07-24T05:01:31;97288.13;;;16.25
15333;BMP180;7766;51.534;6.722;2023-07-24T05:02:32;97287.72;;;16.19
15333;BMP180;7766;51.534;6.722;2023-07-24T05:03:33;97294.59;;;16.20
15333;BMP180;7766;51.534;6.722;2023-07-24T05:04:34;97296.97;;;16.21
15333;BMP180;7766;51.534;6.722;2023-07-24T05:05:35;97298.25;;;16.10
15333;BMP180;7766;51.534;6.722;2023-07-24T05:06:36;97298.16;;;16.15
15333;BMP180;7766;51.534;6.722;2023-07-24T05:07:39;97299.09;;;16.19
15333;BMP180;7766;51.534;6.722;2023-07-24T05:08:40;97304.50;;;16.27
15333;BMP180;7766;51.534;6.722;2023-07-24T05:09:41;97307.25;;;16.22
15333;BMP180;7766;51.534;6.722;2023-07-24T05:10:42;97310.69;;;16.23
15333;BMP180;7766;51.534;6.722;2023-07-24T05:11:43;97304.09;;;16.34
15333;BMP180;7766;51.534;6.722;2023-07-24T05:12:45;97312.31;;;16.32
15333;BMP180;7766;51.534;6.722;2023-07-24T05:13:46;97316.38;;;16.17
15333;BMP180;7766;51.534;6.722;2023-07-24T05:14:47;97319.09;;;16.25
15333;BMP180;7766;51.534;6.722;2023-07-24T05:15:48;97318.22;;;16.29
15333;BMP180;7766;51.534;6.722;2023-07-24T05:16:49;97314.97;;;16.32
15333;BMP180;7766;51.534;6.722;2023-07-24T05:17:50;97326.16;;;16.29
15333;BMP180;7766;51.534;6.722;2023-07-24T05:18:51;97324.88;;;16.27
15333;BMP180;7766;51.534;6.722;2023-07-24T05:19:52;97320.38;;;16.27
15333;BMP180;7766;51.534;6.722;2023-07-24T05:20:53;97331.66;;;16.20
15333;BMP180;7766;51.534;6.722;2023-07-24T05:21:54;97328.22;;;16.19
15333;BMP180;7766;51.534;6.722;2023-07-24T05:22:55;97326.97;;;16.17
15333;BMP180;7766;51.534;6.722;2023-07-24T05:23:56;97327.53;;;16.27
15333;BMP180;7766;51.534;6.722;2023-07-24T05:24:57;97321.25;;;16.36
15333;BMP180;7766;51.534;6.722;2023-07-24T05:26:02;97326.00;;;16.26
15333;BMP180;7766;51.534;6.722;2023-07-24T05:27:04;97332.47;;;16.20
15333;BMP180;7766;51.534;6.722;2023-07-24T05:28:05;97337.75;;;16.20
15333;BMP180;7766;51.534;6.722;2023-07-24T05:29:06;97333.41;;;16.24
15333;BMP180;7766;51.534;6.722;2023-07-24T05:30:08;97336.25;;;16.27
15333;BMP180;7766;51.534;6.722;2023-07-24T05:31:09;97343.03;;;16.33
15333;BMP180;7766;51.534;6.722;2023-07-24T05:32:10;97336.16;;;16.32
15333;BMP180;7766;51.534;6.722;2023-07-24T05:33:11;97344.97;;;16.41
15333;BMP180;7766;51.534;6.722;2023-07-24T05:34:12;97343.03;;;16.33
15333;BMP180;7766;51.534;6.722;2023-07-24T05:35:13;97358.25;;;16.28
15333;BMP180;7766;51.534;6.722;2023-07-24T05:36:14;97343.34;;;16.32
15333;BMP180;7766;51.534;6.722;2023-07-24T05:37:15;97352.06;;;16.32
15333;BMP180;7766;51.534;6.722;2023-07-24T05:38:16;97353.66;;;16.20
15333;BMP180;7766;51.534;6.722;2023-07-24T05:39:17;97350.09;;;16.24
15333;BMP180;7766;51.534;6.722;2023-07-24T05:40:18;97352.84;;;16.20
15333;BMP180;7766;51.534;6.722;2023-07-24T05:41:19;97350.41;;;16.23
15333;BMP180;7766;51.534;6.722;2023-07-24T05:42:20;97345.81;;;16.15
15333;BMP180;7766;51.534;6.722;2023-07-24T05:43:21;97348.72;;;16.14
15333;BMP180;7766;51.534;6.722;2023-07-24T05:44:22;97339.34;;;16.08
15333;BMP180;7766;51.534;6.722;2023-07-24T05:45:23;97338.34;;;16.17
15333;BMP180;7766;51.534;6.722;2023-07-24T05:46:24;97339.91;;;16.18
15333;BMP180;7766;51.534;6.722;2023-07-24T05:47:25;97338.66;;;16.16
15333;BMP180;7766;51.534;6.722;2023-07-24T05:48:26;97347.56;;;16.20
15333;BMP180;7766;51.534;6.722;2023-07-24T05:49:27;97351.00;;;16.20
15333;BMP180;7766;51.534;6.722;2023-07-24T05:50:27;97354.81;;;16.27
15333;BMP180;7766;51.534;6.722;2023-07-24T05:51:28;97350.50;;;16.18
15333;BMP180;7766;51.534;6.722;2023-07-24T05:52:29;97348.94;;;16.17
15333;BMP180;7766;51.534;6.722;2023-07-24T05:53:30;97353.66;;;16.20
15333;BMP180;7766;51.534;6.722;2023-07-24T05:54:31;97345.97;;;16.19
15333;BMP180;7766;51.534;6.722;2023-07-24T05:55:32;97350.88;;;16.25
15333;BMP180;7766;51.534;6.722;2023-07-24T05:56:33;97361.38;;;16.30
15333;BMP180;7766;51.534;6.722;2023-07-24T05:57:34;97348.53;;;16.36
15333;BMP180;7766;51.534;6.722;2023-07-24T05:58:35;97352.34;;;16.44
15333;BMP180;7766;51.534;6.722;2023-07-24T05:59:36;97346.19;;;16.22
15333;BMP180;7766;51.534;6.722;2023-07-24T06:00:38;97354.03;;;16.27
15333;BMP180;7766;51.534;6.722;2023-07-24T06:01:39;97343.94;;;16.29
15333;BMP180;7766;51.534;6.722;2023-07-24T06:02:39;97342.47;;;16.23